LJLJLJPZ

Guest
Details From LJLJ - LJUBLJANA
To LJPZ - PORTOROZ
Flight Number -
Tags decoded
Created
Modified
Stats Distance 69 nm / 128 km
Max Altitude 0 ft / 0 m
Waypoints 4
Social Downloads 0
Likes 0
Share VATSIM

Download

Looking for another format? Having issues loading an existing format? Contact us
Advertisement - Login to hide

Notes

Requested: LJLJ MG ILB LJPZ

Route

LJLJ MG ILB LJPZ

ID Type Via Altitude (ft/m) Position (lat/lon) Dist (leg/tot) Name
O LJLJ APT - 0 / 0 46.22368 / 14.45761 - / 0 nm LJUBLJANA
MG NDB - 0 / 0 46.17323 / 14.55594 5 / 5 nm LJUBLJANA NDB
ILB NDB - 0 / 0 45.56447 / 14.17197 39 / 45 nm BISTRICA NDB
O LJPZ APT - 0 / 0 45.47244 / 13.61568 24 / 69 nm PORTOROZ

Altitude Profile

Advertisement - Login to hide

LJLJ

Details ICAO LJLJ (LJU)
Name Ljubljana Joze Pucnik Int'l
Region Slovenia
Timezone Europe/Ljubljana (UTC+1.0)
Stats Elevation 1,271 ft / 387 m (AMSL)
Location 46.223700° 14.457600°
Runways 1
Magnetic Variation 3.777° E

METAR

LJLJ 161100Z VRB02KT 9999 FEW020 BKN130 M01/M06 Q1018 NOSIG

Decode

TAF

TAF LJLJ 160800Z 1609/1709 VRB02KT 9999 OVC018 BECMG 1609/1612 25004KT BKN022 BECMG 1612/1615 FEW020 BECMG 1616/1618 19003KT

Decode

Departure Runways

ID Width Length Bearing (true/mag) Surface Threshold Overrun Markings Lighting
12 148 ft / 45 m 10,838 ft / 3,303 m 126.47° / 122.70° ASPHALT 0 ft / 0 m 0 ft / 0 m APP CENTERLINE EDGE THRESHOLD SALS REIL-OMNI
30 148 ft / 45 m 10,838 ft / 3,303 m 306.50° / 302.72° ASPHALT 0 ft / 0 m 0 ft / 0 m PREC-APP CENTERLINE EDGE THRESHOLD CALVERT-ILS TDZ REIL-OMNI

LJPZ

Details ICAO LJPZ (POW)
Name PORTOROZ
Region Slovenia
Timezone Europe/Ljubljana (UTC+1.0)
Stats Elevation 7 ft / 2 m (AMSL)
Location 45.472400° 13.615700°
Runways 1
Magnetic Variation 3.557° E

METAR

LJPZ 161100Z 27002KT CAVOK 06/M02 Q1019

Decode

TAF

Not found

Destination Runways

ID Width Length Bearing (true/mag) Surface Threshold Overrun Markings Lighting
15 98 ft / 30 m 3,939 ft / 1,201 m 151.28° / 147.73° ASPHALT 0 ft / 0 m 0 ft / 0 m APP EDGE THRESHOLD MALS
33 98 ft / 30 m 3,939 ft / 1,201 m 331.29° / 327.73° ASPHALT 751 ft / 229 m 0 ft / 0 m APP EDGE THRESHOLD

Popular Alternatives